Time;durP1;ratioP1;P1;durP2;ratioP2;P2;SDS_P1;SDS_P2;PMS_P1;PMS_P2;Temp;Humidity;BMP_temperature;BMP_pressure;BME280_temperature;BME280_humidity;BME280_pressure;Samples;Min_cycle;Max_cycle;Signal;HPM_P1;HPM_P2
2023/04/18 00:00:24;;;;;;;26.35;14.27;;;8.40;99.90;;;;;;5071368;28;20464;-72
2023/04/18 00:02:52;;;;;;;27.67;14.40;;;8.40;99.90;;;;;;5071056;28;20034;-70
2023/04/18 00:05:19;;;;;;;27.45;14.00;;;8.40;99.90;;;;;;5071636;28;20514;-70
2023/04/18 00:07:45;;;;;;;25.70;13.07;;;8.40;99.90;;;;;;5067885;28;20024;-72
2023/04/18 00:10:11;;;;;;;27.77;14.70;;;8.40;99.90;;;;;;5065639;28;20463;-71
2023/04/18 00:12:37;;;;;;;26.60;13.75;;;8.40;99.90;;;;;;5068565;28;20032;-70
2023/04/18 00:15:04;;;;;;;27.60;14.30;;;8.40;99.90;;;;;;5071970;28;20028;-72
2023/04/18 00:17:31;;;;;;;26.17;14.80;;;8.40;99.90;;;;;;5071427;28;20036;-73
2023/04/18 00:19:57;;;;;;;25.80;14.10;;;8.40;99.90;;;;;;5067622;28;20016;-72
2023/04/18 00:22:23;;;;;;;30.55;14.32;;;8.40;99.90;;;;;;5061228;28;20101;-72
2023/04/18 00:24:50;;;;;;;23.10;12.40;;;8.40;99.90;;;;;;5072621;28;20028;-72
2023/04/18 00:27:17;;;;;;;24.70;11.82;;;8.30;99.90;;;;;;5070519;28;20029;-72
2023/04/18 00:29:43;;;;;;;22.45;11.57;;;8.40;99.90;;;;;;5064290;28;20051;-73
2023/04/18 00:32:08;;;;;;;21.42;10.77;;;8.40;99.90;;;;;;5069373;28;20028;-72
2023/04/18 00:34:34;;;;;;;20.55;9.73;;;8.40;99.90;;;;;;5056969;28;20465;-72
2023/04/18 00:36:59;;;;;;;18.52;9.15;;;8.50;99.90;;;;;;5069077;28;20487;-72
2023/04/18 00:39:25;;;;;;;17.85;9.07;;;8.50;99.90;;;;;;5072664;28;20036;-75
2023/04/18 00:41:50;;;;;;;15.48;8.85;;;8.50;99.90;;;;;;5068253;28;20067;-72
2023/04/18 00:44:16;;;;;;;18.75;8.27;;;8.50;99.90;;;;;;5071922;28;20024;-75
2023/04/18 00:46:42;;;;;;;19.73;8.77;;;8.60;99.90;;;;;;5069803;28;20036;-73
2023/04/18 00:49:07;;;;;;;17.77;8.60;;;8.60;99.90;;;;;;5071672;28;20078;-74
2023/04/18 00:51:34;;;;;;;14.48;8.50;;;8.60;99.90;;;;;;5065801;28;20059;-74
2023/04/18 00:54:00;;;;;;;20.48;8.52;;;8.60;99.90;;;;;;5053688;28;20589;-72
2023/04/18 00:56:26;;;;;;;18.10;8.95;;;8.60;99.90;;;;;;5065686;28;20111;-72
2023/04/18 00:58:52;;;;;;;16.88;8.13;;;8.60;99.90;;;;;;5057878;28;20125;-72
2023/04/18 01:01:17;;;;;;;14.60;7.45;;;8.60;99.90;;;;;;5056339;28;20033;-72
2023/04/18 01:03:43;;;;;;;20.23;8.65;;;8.50;99.90;;;;;;5072592;28;20078;-72
2023/04/18 01:06:08;;;;;;;16.38;8.07;;;8.50;99.90;;;;;;5071508;28;20040;-72
2023/04/18 01:08:37;;;;;;;18.58;7.88;;;8.50;99.90;;;;;;5071093;28;20029;-72
2023/04/18 01:11:02;;;;;;;15.70;7.82;;;8.50;99.90;;;;;;5072252;28;20077;-73
2023/04/18 01:13:28;;;;;;;17.90;7.93;;;8.50;99.90;;;;;;5072384;28;20029;-72
2023/04/18 01:15:54;;;;;;;17.60;8.55;;;8.50;99.90;;;;;;5057002;28;20033;-72
2023/04/18 01:18:21;;;;;;;17.65;8.70;;;8.50;99.90;;;;;;5067749;28;20047;-73
2023/04/18 01:20:49;;;;;;;16.25;7.72;;;8.50;99.90;;;;;;5072761;28;20020;-73
2023/04/18 01:23:16;;;;;;;17.02;8.60;;;8.50;99.90;;;;;;5071649;28;20033;-72
2023/04/18 01:25:43;;;;;;;18.70;9.23;;;8.50;99.90;;;;;;5072665;28;20055;-73
2023/04/18 01:28:09;;;;;;;16.10;8.25;;;8.50;99.90;;;;;;5068092;28;20060;-75
2023/04/18 01:30:35;;;;;;;18.63;8.82;;;8.50;99.90;;;;;;5071234;28;20524;-73
2023/04/18 01:33:03;;;;;;;18.33;8.63;;;8.50;99.90;;;;;;5069468;28;20150;-74
2023/04/18 01:35:29;;;;;;;19.63;9.02;;;8.40;99.90;;;;;;5071013;28;20372;-73
2023/04/18 01:37:55;;;;;;;18.00;9.18;;;8.40;99.90;;;;;;5069758;28;20032;-73
2023/04/18 01:40:20;;;;;;;16.38;7.97;;;8.40;99.90;;;;;;5072866;28;20029;-72
2023/04/18 01:42:46;;;;;;;19.35;9.05;;;8.40;99.90;;;;;;5074199;28;20032;-75
2023/04/18 01:45:12;;;;;;;20.40;8.55;;;8.30;99.90;;;;;;5074509;28;20037;-71
2023/04/18 01:47:38;;;;;;;18.35;9.18;;;8.30;99.90;;;;;;5074048;28;20110;-73
2023/04/18 01:50:04;;;;;;;18.63;8.82;;;8.30;99.90;;;;;;5074765;28;20166;-71
2023/04/18 01:52:29;;;;;;;18.88;8.52;;;8.30;99.90;;;;;;5073865;28;20039;-71
2023/04/18 01:54:55;;;;;;;17.95;8.52;;;8.30;99.90;;;;;;5074536;28;20028;-75
2023/04/18 01:57:21;;;;;;;18.13;9.25;;;8.30;99.90;;;;;;5074155;28;20114;-72
2023/04/18 01:59:46;;;;;;;16.55;8.77;;;8.20;99.90;;;;;;5074911;28;20093;-72
2023/04/18 02:02:12;;;;;;;20.63;8.88;;;8.20;99.90;;;;;;5074442;28;20465;-72
2023/04/18 02:04:37;;;;;;;18.05;8.82;;;8.20;99.90;;;;;;5073400;28;20123;-72
2023/04/18 02:07:03;;;;;;;18.52;8.82;;;8.20;99.90;;;;;;5073321;28;20368;-72
2023/04/18 02:09:29;;;;;;;18.65;8.88;;;8.20;99.90;;;;;;5074044;28;20032;-72
2023/04/18 02:11:58;;;;;;;21.05;9.00;;;8.20;99.90;;;;;;5074589;28;20082;-72
2023/04/18 02:14:25;;;;;;;17.98;8.75;;;8.20;99.90;;;;;;5073708;28;20103;-71
2023/04/18 02:16:50;;;;;;;19.48;8.52;;;8.20;99.90;;;;;;5074562;28;20533;-72
2023/04/18 02:19:16;;;;;;;17.33;8.93;;;8.20;99.90;;;;;;5073892;28;20029;-72
2023/04/18 02:21:43;;;;;;;19.70;9.27;;;8.20;99.90;;;;;;5072834;28;20025;-71
2023/04/18 02:24:09;;;;;;;18.42;9.27;;;8.20;99.90;;;;;;5071850;28;20024;-71
2023/04/18 02:26:34;;;;;;;18.38;9.63;;;8.10;99.90;;;;;;5073807;28;20040;-71
2023/04/18 02:29:00;;;;;;;15.65;8.65;;;8.10;99.90;;;;;;5017489;28;1271722;-71
2023/04/18 02:31:26;;;;;;;18.13;8.98;;;8.10;99.90;;;;;;5075160;28;20033;-71
2023/04/18 02:33:51;;;;;;;17.70;8.45;;;8.10;99.90;;;;;;5073130;28;20024;-71
2023/04/18 02:36:17;;;;;;;20.52;9.60;;;8.10;99.90;;;;;;5073630;28;20551;-71
2023/04/18 02:38:44;;;;;;;21.33;9.50;;;8.10;99.90;;;;;;5060887;28;20024;-71
2023/04/18 02:41:13;;;;;;;19.83;9.40;;;8.00;99.90;;;;;;5072506;28;20029;-71
2023/04/18 02:43:40;;;;;;;18.95;8.95;;;7.90;99.90;;;;;;5073088;28;20051;-71
2023/04/18 02:46:05;;;;;;;19.15;9.32;;;7.90;99.90;;;;;;5073381;28;20056;-71
2023/04/18 02:48:31;;;;;;;19.63;9.18;;;7.80;99.90;;;;;;5072446;28;20028;-72
2023/04/18 02:51:07;;;;;;;18.48;9.30;;;7.80;99.90;;;;;;5070661;28;20469;-71
2023/04/18 02:53:34;;;;;;;20.90;10.30;;;7.70;99.90;;;;;;5067386;28;20053;-72
2023/04/18 02:56:00;;;;;;;20.17;10.02;;;7.60;99.90;;;;;;5062348;28;20025;-71
2023/04/18 02:58:26;;;;;;;20.08;9.68;;;7.60;99.90;;;;;;5081749;28;20031;-71
2023/04/18 03:00:53;;;;;;;19.77;10.18;;;7.50;99.90;;;;;;5068071;28;20488;-71
2023/04/18 03:03:19;;;;;;;19.75;10.73;;;7.40;99.90;;;;;;5074119;28;20029;-71
2023/04/18 03:05:44;;;;;;;19.88;9.10;;;7.40;99.90;;;;;;5072762;28;20042;-71
2023/04/18 03:08:10;;;;;;;20.10;10.38;;;7.40;99.90;;;;;;5074930;28;20091;-71
2023/04/18 03:10:36;;;;;;;23.35;11.70;;;7.30;99.90;;;;;;5073812;28;20021;-76
2023/04/18 03:13:02;;;;;;;20.75;10.88;;;7.30;99.90;;;;;;5074236;28;20082;-75
2023/04/18 03:15:29;;;;;;;22.45;11.52;;;7.30;99.90;;;;;;5074370;28;20023;-73
2023/04/18 03:17:55;;;;;;;21.08;10.70;;;7.30;99.90;;;;;;5074688;28;20419;-76
2023/04/18 03:20:20;;;;;;;20.60;10.98;;;7.20;99.90;;;;;;5072447;28;20030;-72
2023/04/18 03:22:46;;;;;;;24.90;11.45;;;7.20;99.90;;;;;;5072021;28;20032;-72
2023/04/18 03:25:12;;;;;;;22.02;11.13;;;7.10;99.90;;;;;;5073361;28;20369;-74
2023/04/18 03:27:37;;;;;;;23.75;12.27;;;7.10;99.90;;;;;;5072422;28;20052;-71
2023/04/18 03:30:03;;;;;;;20.73;11.45;;;7.10;99.90;;;;;;5073564;28;20037;-71
2023/04/18 03:32:32;;;;;;;22.50;12.90;;;7.00;99.90;;;;;;5074407;28;20075;-73
2023/04/18 03:34:58;;;;;;;24.75;12.27;;;7.00;99.90;;;;;;5074096;28;20033;-75
2023/04/18 03:37:23;;;;;;;21.67;12.05;;;7.00;99.90;;;;;;5072573;28;20467;-73
2023/04/18 03:39:49;;;;;;;23.63;12.60;;;6.90;99.90;;;;;;5073431;28;20032;-74
2023/04/18 03:42:14;;;;;;;24.58;12.45;;;6.90;99.90;;;;;;5074083;28;20032;-74
2023/04/18 03:44:40;;;;;;;23.58;13.00;;;6.90;99.90;;;;;;5074066;28;20059;-74
2023/04/18 03:47:05;;;;;;;24.38;13.18;;;6.90;99.90;;;;;;5073293;28;20044;-73
2023/04/18 03:49:31;;;;;;;25.02;13.40;;;6.80;99.90;;;;;;5074086;28;20086;-74
2023/04/18 03:51:57;;;;;;;23.35;12.68;;;6.80;99.90;;;;;;5070728;28;20039;-73
2023/04/18 03:54:22;;;;;;;28.35;13.95;;;6.80;99.90;;;;;;5073292;28;20024;-74
2023/04/18 03:56:48;;;;;;;21.63;11.98;;;6.80;99.90;;;;;;5073181;28;20064;-71
2023/04/18 03:59:14;;;;;;;26.38;14.18;;;6.80;99.90;;;;;;5073809;28;20024;-75
2023/04/18 04:01:39;;;;;;;28.67;14.40;;;6.80;99.90;;;;;;5072173;28;20028;-73
2023/04/18 04:04:05;;;;;;;25.73;14.15;;;6.70;99.90;;;;;;5065324;28;20098;-73
2023/04/18 04:06:31;;;;;;;27.45;14.95;;;6.70;99.90;;;;;;5065978;28;20072;-72
2023/04/18 04:08:57;;;;;;;24.55;14.38;;;6.70;99.90;;;;;;5063740;28;20032;-73
2023/04/18 04:11:22;;;;;;;24.85;13.77;;;6.70;99.90;;;;;;5069492;28;20043;-72
2023/04/18 04:13:48;;;;;;;25.15;14.20;;;6.70;99.90;;;;;;5073630;28;20081;-73
2023/04/18 04:16:14;;;;;;;24.77;14.20;;;6.70;99.90;;;;;;5073101;28;20068;-72
2023/04/18 04:18:39;;;;;;;23.80;13.38;;;6.70;99.90;;;;;;5073992;28;20029;-71
2023/04/18 04:21:05;;;;;;;24.00;13.65;;;6.70;99.90;;;;;;5071831;28;20020;-73
2023/04/18 04:23:31;;;;;;;26.88;13.45;;;6.70;99.90;;;;;;5073639;28;20027;-74
2023/04/18 04:25:58;;;;;;;26.25;13.45;;;6.70;99.90;;;;;;5071175;28;20033;-71
2023/04/18 04:28:25;;;;;;;22.58;12.07;;;6.70;99.90;;;;;;5072736;28;20481;-74
2023/04/18 04:30:51;;;;;;;24.02;14.05;;;6.80;99.90;;;;;;5073139;28;20028;-72
2023/04/18 04:33:20;;;;;;;22.98;12.63;;;6.90;99.90;;;;;;5073056;28;20540;-71
2023/04/18 04:35:46;;;;;;;22.50;11.18;;;7.00;99.90;;;;;;5072589;28;20020;-75
2023/04/18 04:38:15;;;;;;;22.55;11.32;;;7.00;99.90;;;;;;5072318;28;20078;-73
2023/04/18 04:40:41;;;;;;;23.05;11.38;;;7.00;99.90;;;;;;5073150;28;20043;-74
2023/04/18 04:43:11;;;;;;;23.55;11.70;;;7.10;99.90;;;;;;5071234;28;20040;-71
2023/04/18 04:45:38;;;;;;;23.30;12.07;;;7.20;99.90;;;;;;5056009;28;20616;-76
2023/04/18 04:48:04;;;;;;;22.05;12.43;;;7.30;99.90;;;;;;5072037;28;20069;-73
2023/04/18 04:50:34;;;;;;;22.75;11.50;;;7.40;99.90;;;;;;5072671;28;20028;-72
2023/04/18 04:53:00;;;;;;;20.08;10.98;;;7.50;99.90;;;;;;5071673;28;20052;-75
2023/04/18 04:55:26;;;;;;;23.45;11.98;;;7.60;99.90;;;;;;5072381;28;20048;-74
2023/04/18 04:57:52;;;;;;;21.50;11.48;;;7.70;99.90;;;;;;5072888;28;20063;-74
2023/04/18 05:00:19;;;;;;;22.63;11.40;;;7.80;99.90;;;;;;5071046;28;20024;-73
2023/04/18 05:02:46;;;;;;;19.55;10.68;;;7.80;99.90;;;;;;5072026;28;20025;-72
2023/04/18 05:05:12;;;;;;;20.20;10.98;;;7.90;99.90;;;;;;5072659;28;20024;-74
2023/04/18 05:07:37;;;;;;;22.60;10.65;;;8.00;99.90;;;;;;5071404;28;20048;-73
2023/04/18 05:10:03;;;;;;;21.13;10.95;;;8.10;99.90;;;;;;5072298;28;20070;-71
2023/04/18 05:12:29;;;;;;;20.42;10.73;;;8.10;99.90;;;;;;5067560;28;20029;-74
2023/04/18 05:14:54;;;;;;;22.48;11.05;;;8.20;99.90;;;;;;5064544;28;20078;-74
2023/04/18 05:17:20;;;;;;;21.98;10.43;;;8.20;99.90;;;;;;5066940;28;20430;-72
2023/04/18 05:19:45;;;;;;;17.67;9.70;;;8.30;99.90;;;;;;5053675;28;20029;-72
2023/04/18 05:22:11;;;;;;;21.73;11.27;;;8.30;99.90;;;;;;5064075;28;20031;-72
2023/04/18 05:24:36;;;;;;;23.00;11.60;;;8.40;99.90;;;;;;5072422;28;20037;-72
2023/04/18 05:27:02;;;;;;;21.08;10.30;;;8.40;99.90;;;;;;5072151;28;20028;-72
2023/04/18 05:29:28;;;;;;;22.67;11.18;;;8.50;99.90;;;;;;5066564;28;20496;-72
2023/04/18 05:31:54;;;;;;;20.05;9.70;;;8.50;99.90;;;;;;5069794;28;20033;-71
2023/04/18 05:34:19;;;;;;;20.77;10.57;;;8.60;99.90;;;;;;5066099;28;20024;-71
2023/04/18 05:36:46;;;;;;;20.33;9.15;;;8.60;99.90;;;;;;5071420;28;20050;-71
2023/04/18 05:39:12;;;;;;;19.65;9.57;;;8.60;99.90;;;;;;5072300;28;20602;-71
2023/04/18 05:41:37;;;;;;;22.00;10.55;;;8.60;99.90;;;;;;5072837;28;20064;-71
2023/04/18 05:44:03;;;;;;;21.58;9.70;;;8.60;99.90;;;;;;5070459;28;20040;-71
2023/04/18 05:46:29;;;;;;;21.70;10.77;;;8.60;99.90;;;;;;5071696;28;20079;-71
2023/04/18 05:48:55;;;;;;;19.63;10.63;;;8.50;99.90;;;;;;5071367;28;20072;-71
2023/04/18 05:51:21;;;;;;;24.17;10.80;;;8.50;99.90;;;;;;5071279;28;20485;-72
2023/04/18 05:53:46;;;;;;;20.00;9.40;;;8.50;99.90;;;;;;5063150;28;20101;-72
2023/04/18 05:56:12;;;;;;;18.13;9.18;;;8.50;99.90;;;;;;5072503;28;20443;-72
2023/04/18 05:58:38;;;;;;;19.75;10.15;;;8.60;99.90;;;;;;5071627;28;20024;-72
2023/04/18 06:01:04;;;;;;;19.50;10.07;;;8.60;99.90;;;;;;5072170;28;20032;-71
2023/04/18 06:03:29;;;;;;;19.67;9.95;;;8.60;99.90;;;;;;5071672;28;20460;-71
2023/04/18 06:05:55;;;;;;;22.42;10.13;;;8.60;99.90;;;;;;5061868;28;20037;-71
2023/04/18 06:08:20;;;;;;;19.55;9.85;;;8.70;99.90;;;;;;5071456;28;20041;-71
2023/04/18 06:10:46;;;;;;;21.52;10.88;;;8.80;99.90;;;;;;5071825;28;20085;-72
2023/04/18 06:13:11;;;;;;;17.42;8.43;;;8.80;99.90;;;;;;5062869;28;20029;-71
2023/04/18 06:15:37;;;;;;;19.80;10.60;;;8.90;99.90;;;;;;5066188;28;20082;-71
2023/04/18 06:18:03;;;;;;;19.70;9.52;;;8.90;99.90;;;;;;5069784;28;20029;-71
2023/04/18 06:20:28;;;;;;;17.90;9.25;;;9.00;99.90;;;;;;5069009;28;20021;-71
2023/04/18 06:22:54;;;;;;;21.05;10.52;;;9.00;99.90;;;;;;5066643;28;20025;-71
2023/04/18 06:25:19;;;;;;;20.48;10.80;;;9.10;99.90;;;;;;5070926;28;20131;-71
2023/04/18 06:27:45;;;;;;;21.50;9.25;;;9.20;99.90;;;;;;5071704;28;20099;-72
2023/04/18 06:30:11;;;;;;;19.13;8.55;;;9.20;99.90;;;;;;5073551;28;20032;-72
2023/04/18 06:32:37;;;;;;;19.60;8.90;;;9.30;99.90;;;;;;5074038;28;20016;-72
2023/04/18 06:35:03;;;;;;;18.90;8.55;;;9.30;99.90;;;;;;5069163;28;20048;-72
2023/04/18 06:37:28;;;;;;;17.83;8.27;;;9.30;99.90;;;;;;5070894;28;20028;-72
2023/04/18 06:39:54;;;;;;;19.52;8.40;;;9.40;99.90;;;;;;5068411;28;20029;-72
2023/04/18 06:42:20;;;;;;;17.70;8.73;;;9.40;99.90;;;;;;5073689;28;20193;-72
2023/04/18 06:44:45;;;;;;;15.68;7.88;;;9.40;99.90;;;;;;5073528;28;20544;-72
2023/04/18 06:47:11;;;;;;;19.20;8.57;;;9.50;99.90;;;;;;5074052;28;20085;-72
2023/04/18 06:49:36;;;;;;;17.08;8.15;;;9.50;99.90;;;;;;5071869;28;20431;-72
2023/04/18 06:52:02;;;;;;;20.50;9.13;;;9.50;99.90;;;;;;5071351;28;20086;-72
2023/04/18 06:54:28;;;;;;;19.85;8.98;;;9.50;99.90;;;;;;5070761;28;20384;-71
2023/04/18 06:56:53;;;;;;;16.85;8.73;;;9.40;99.90;;;;;;5073237;28;20054;-71
2023/04/18 06:59:20;;;;;;;17.40;8.40;;;9.30;99.90;;;;;;5073122;28;20070;-69
2023/04/18 07:01:46;;;;;;;16.70;8.40;;;9.00;99.90;;;;;;5072611;28;20025;-70
2023/04/18 07:04:12;;;;;;;19.38;9.13;;;8.80;99.90;;;;;;5073032;28;20071;-70
2023/04/18 07:06:37;;;;;;;18.58;8.30;;;8.70;99.90;;;;;;5072507;28;20076;-71
2023/04/18 07:09:03;;;;;;;17.60;8.52;;;8.60;99.90;;;;;;5070820;28;20051;-70
2023/04/18 07:11:28;;;;;;;16.58;8.43;;;8.50;99.90;;;;;;5069412;28;20483;-70
2023/04/18 07:13:57;;;;;;;16.98;7.97;;;8.70;99.90;;;;;;5067244;28;20029;-70
2023/04/18 07:16:23;;;;;;;18.23;8.80;;;8.90;99.90;;;;;;5068674;28;20043;-71
2023/04/18 07:18:48;;;;;;;19.05;8.15;;;9.20;99.90;;;;;;5071553;28;20426;-71
2023/04/18 07:21:14;;;;;;;18.58;7.75;;;9.50;99.90;;;;;;5069182;28;20024;-71
2023/04/18 07:23:40;;;;;;;15.32;6.43;;;9.70;99.90;;;;;;5072655;28;20468;-71
2023/04/18 07:26:05;;;;;;;19.25;9.20;;;9.90;99.90;;;;;;5070413;28;20040;-72
2023/04/18 07:28:31;;;;;;;18.95;8.23;;;10.00;99.90;;;;;;5069021;28;20396;-72
2023/04/18 07:30:57;;;;;;;14.25;7.25;;;10.10;99.90;;;;;;5067938;28;20079;-72
2023/04/18 07:33:24;;;;;;;17.58;7.22;;;10.30;99.90;;;;;;5071907;28;20029;-72
2023/04/18 07:35:50;;;;;;;17.48;7.10;;;10.60;99.90;;;;;;5071351;28;20024;-72
2023/04/18 07:38:16;;;;;;;17.65;7.93;;;10.70;99.90;;;;;;5071160;28;20024;-72
2023/04/18 07:40:55;;;;;;;18.45;8.63;;;10.70;99.90;;;;;;5062747;28;20029;-72
2023/04/18 07:43:20;;;;;;;14.60;6.95;;;10.70;99.90;;;;;;5071194;28;20420;-72
2023/04/18 07:45:46;;;;;;;18.10;7.97;;;10.70;99.90;;;;;;5067305;28;20089;-71
2023/04/18 07:48:12;;;;;;;15.45;7.82;;;10.80;99.90;;;;;;5072777;28;20020;-72
2023/04/18 07:50:38;;;;;;;16.30;7.22;;;10.90;99.90;;;;;;5072065;28;20027;-74
2023/04/18 07:53:03;;;;;;;17.00;7.65;;;11.10;99.90;;;;;;5072002;28;20029;-74
2023/04/18 07:55:29;;;;;;;15.13;7.70;;;11.40;99.90;;;;;;5069227;28;20016;-72
2023/04/18 07:57:55;;;;;;;14.00;6.82;;;11.70;99.90;;;;;;5066528;28;20052;-72
2023/04/18 08:00:20;;;;;;;17.17;6.90;;;12.00;99.90;;;;;;5067587;28;20398;-72
2023/04/18 08:02:46;;;;;;;16.25;6.38;;;12.10;99.90;;;;;;5068470;28;20043;-75
2023/04/18 08:05:11;;;;;;;13.75;7.13;;;12.20;99.90;;;;;;5071527;28;20031;-74
2023/04/18 08:07:37;;;;;;;13.18;6.38;;;12.20;99.90;;;;;;5072124;28;20476;-77
2023/04/18 08:10:03;;;;;;;16.30;7.25;;;12.40;99.90;;;;;;5061226;28;20021;-71
2023/04/18 08:12:28;;;;;;;19.38;7.72;;;12.50;99.90;;;;;;5071804;28;20082;-74
2023/04/18 08:14:54;;;;;;;15.07;7.18;;;12.60;99.90;;;;;;5072688;28;20062;-75
2023/04/18 08:17:21;;;;;;;14.82;6.70;;;12.70;99.90;;;;;;5073698;28;20103;-72
2023/04/18 08:19:46;;;;;;;16.40;7.28;;;12.90;99.90;;;;;;5073130;28;20028;-72
2023/04/18 08:22:12;;;;;;;12.60;7.28;;;13.10;99.90;;;;;;5073604;28;20074;-69
2023/04/18 08:24:38;;;;;;;15.27;6.95;;;13.40;99.90;;;;;;5072545;28;20033;-74
2023/04/18 08:27:03;;;;;;;13.45;6.20;;;13.70;99.90;;;;;;5073405;28;20534;-75
2023/04/18 08:29:29;;;;;;;15.10;6.90;;;14.00;99.90;;;;;;5073361;28;20049;-70
2023/04/18 08:31:55;;;;;;;15.93;6.55;;;14.00;99.90;;;;;;5073240;28;20025;-73
2023/04/18 08:34:20;;;;;;;13.50;6.72;;;14.00;99.90;;;;;;5073453;28;20066;-73
2023/04/18 08:36:46;;;;;;;13.50;6.50;;;14.20;99.90;;;;;;5073260;28;20025;-72
2023/04/18 08:39:12;;;;;;;15.30;7.55;;;14.40;99.90;;;;;;5071776;28;20457;-72
2023/04/18 08:41:41;;;;;;;12.73;6.18;;;15.00;99.90;;;;;;5063662;28;20481;-73
2023/04/18 08:44:07;;;;;;;13.90;6.70;;;16.20;99.90;;;;;;5073300;28;20020;-74
2023/04/18 08:46:34;;;;;;;16.35;6.82;;;16.80;98.70;;;;;;5073148;28;20365;-71
2023/04/18 08:49:03;;;;;;;12.45;6.18;;;17.30;98.00;;;;;;5072937;28;20155;-75
2023/04/18 08:51:31;;;;;;;12.13;6.22;;;18.00;97.10;;;;;;5072901;28;20130;-73
2023/04/18 08:54:03;;;;;;;13.77;5.97;;;18.70;96.10;;;;;;5072880;28;20465;-75
2023/04/18 08:56:29;;;;;;;10.57;5.55;;;18.30;95.90;;;;;;5065733;28;20046;-73
2023/04/18 08:58:58;;;;;;;10.68;5.75;;;18.20;95.80;;;;;;5072807;28;20102;-73
2023/04/18 09:01:55;;;;;;;10.48;5.68;;;18.60;95.10;;;;;;5072975;28;20032;-72
2023/04/18 09:04:37;;;;;;;9.80;5.45;;;19.20;94.60;;;;;;5072966;28;20017;-75
2023/04/18 09:07:03;;;;;;;;;;;20.10;93.40;;;;;;5073266;28;20476;-75
2023/04/18 09:09:46;;;;;;;11.73;6.07;;;20.50;92.40;;;;;;5071016;28;19904;-71
2023/04/18 09:12:14;;;;;;;12.73;6.22;;;20.80;92.10;;;;;;5064313;28;20513;-73
2023/04/18 09:14:48;;;;;;;11.30;5.35;;;20.60;91.80;;;;;;5072843;28;20028;-73
2023/04/18 09:17:37;;;;;;;12.13;5.78;;;20.00;92.10;;;;;;5072930;28;20052;-73
2023/04/18 09:20:05;;;;;;;12.93;5.93;;;19.30;92.60;;;;;;5058392;28;20054;-73
2023/04/18 09:22:47;;;;;;;12.38;6.15;;;18.30;93.60;;;;;;5072918;28;20029;-71
2023/04/18 09:25:33;;;;;;;9.35;5.50;;;17.60;94.80;;;;;;5072659;28;20071;-73
2023/04/18 09:28:03;;;;;;;9.85;5.72;;;17.60;95.00;;;;;;5065020;28;20040;-71
2023/04/18 09:30:35;;;;;;;9.77;5.13;;;17.80;95.00;;;;;;5073075;28;20024;-70
2023/04/18 09:33:02;;;;;;;11.77;5.97;;;17.70;94.20;;;;;;5072904;28;20029;-74
2023/04/18 09:35:28;;;;;;;10.48;5.50;;;17.40;94.90;;;;;;5072806;28;20032;-71
2023/04/18 09:37:54;;;;;;;12.43;5.72;;;17.10;95.20;;;;;;5071238;28;20205;-75
2023/04/18 09:40:20;;;;;;;10.18;5.45;;;16.80;96.00;;;;;;5072368;28;20027;-75
2023/04/18 09:42:47;;;;;;;12.20;6.32;;;16.70;96.50;;;;;;5072607;28;20024;-71
2023/04/18 09:45:13;;;;;;;13.52;5.18;;;16.80;96.20;;;;;;5072749;28;20128;-75
2023/04/18 09:47:39;;;;;;;13.65;5.55;;;16.70;96.50;;;;;;5072410;28;20020;-74
2023/04/18 09:50:06;;;;;;;11.55;6.53;;;16.50;96.40;;;;;;5072434;28;20072;-74
2023/04/18 09:52:37;;;;;;;15.10;6.38;;;16.20;96.80;;;;;;5072353;28;20029;-74
2023/04/18 09:55:06;;;;;;;13.55;7.18;;;15.80;97.10;;;;;;5072471;28;20177;-71
2023/04/18 09:57:32;;;;;;;12.82;6.20;;;15.60;97.60;;;;;;5072372;28;20400;-75
2023/04/18 10:00:13;;;;;;;9.75;5.78;;;15.40;98.30;;;;;;5072728;28;20021;-76
2023/04/18 10:03:01;;;;;;;13.65;6.20;;;15.10;98.50;;;;;;5076313;28;20158;-74
2023/04/18 10:05:32;;;;;;;16.58;6.97;;;15.00;98.90;;;;;;5072927;28;20047;-73
2023/04/18 10:07:58;;;;;;;11.85;6.53;;;14.90;98.70;;;;;;5075884;28;20096;-74
2023/04/18 10:10:24;;;;;;;11.05;6.00;;;14.70;98.80;;;;;;5073066;28;20085;-71
2023/04/18 10:12:52;;;;;;;13.75;6.07;;;14.70;99.00;;;;;;5075849;28;20036;-73
2023/04/18 10:15:21;;;;;;;10.80;5.88;;;14.80;99.10;;;;;;5076091;28;20024;-73
2023/04/18 10:17:53;;;;;;;13.80;5.93;;;14.90;98.60;;;;;;5075747;28;20021;-72
2023/04/18 10:20:30;;;;;;;13.65;5.90;;;14.80;98.50;;;;;;5075963;28;20053;-76
2023/04/18 10:22:57;;;;;;;11.10;5.85;;;14.70;99.10;;;;;;5075981;28;20017;-76
2023/04/18 10:25:37;;;;;;;12.70;6.30;;;14.70;99.30;;;;;;5075836;28;20039;-75
2023/04/18 10:28:08;;;;;;;13.13;5.47;;;15.00;99.10;;;;;;5066056;28;20094;-73
2023/04/18 10:30:39;;;;;;;12.50;6.45;;;15.10;98.60;;;;;;5075915;28;20020;-75
2023/04/18 10:33:21;;;;;;;12.95;5.78;;;15.10;98.60;;;;;;5076014;28;20030;-77
2023/04/18 10:36:12;;;;;;;12.60;6.50;;;15.10;98.60;;;;;;5074489;28;20370;-75
2023/04/18 10:38:44;;;;;;;12.85;6.00;;;15.10;98.70;;;;;;5075650;28;20024;-73
2023/04/18 10:41:13;;;;;;;13.23;6.10;;;15.10;98.80;;;;;;5075662;28;20032;-75
2023/04/18 10:44:07;;;;;;;12.05;6.00;;;14.90;98.70;;;;;;5075520;28;20074;-74
2023/04/18 10:46:37;;;;;;;12.73;5.57;;;14.80;98.80;;;;;;5075117;28;20040;-73
2023/04/18 10:49:20;;;;;;;13.32;5.88;;;14.90;99.00;;;;;;5075391;28;20120;-77
2023/04/18 10:51:51;;;;;;;12.52;5.68;;;15.00;98.80;;;;;;5075487;28;20100;-75
2023/04/18 10:54:21;;;;;;;13.27;6.25;;;15.00;99.10;;;;;;5075756;28;20024;-75
2023/04/18 10:56:55;;;;;;;12.98;6.45;;;15.30;98.60;;;;;;5075206;28;20047;-74
2023/04/18 10:59:25;;;;;;;13.80;6.50;;;15.50;98.30;;;;;;5075529;28;20056;-73
2023/04/18 11:02:32;;;;;;;10.27;5.68;;;15.80;98.30;;;;;;5059267;28;20031;-73
2023/04/18 11:05:05;;;;;;;12.65;5.82;;;16.50;96.90;;;;;;5072808;28;20110;-75
2023/04/18 11:07:31;;;;;;;11.70;5.43;;;17.40;96.20;;;;;;5075046;28;20515;-74
2023/04/18 11:09:57;;;;;;;11.95;6.13;;;18.50;94.50;;;;;;5075197;28;20039;-74
2023/04/18 11:12:23;;;;;;;10.75;5.97;;;18.80;93.70;;;;;;5074757;28;20020;-74
2023/04/18 11:14:50;;;;;;;11.63;6.30;;;18.50;93.80;;;;;;5074999;28;20038;-76
2023/04/18 11:17:20;;;;;;;10.77;6.10;;;18.10;94.30;;;;;;5074910;28;20028;-72
2023/04/18 11:19:46;;;;;;;10.88;5.55;;;17.80;94.60;;;;;;5075139;28;20533;-73
2023/04/18 11:22:13;;;;;;;14.68;6.63;;;17.50;94.70;;;;;;5074861;28;20071;-74
2023/04/18 11:24:39;;;;;;;13.77;7.20;;;17.10;95.00;;;;;;5074686;28;20381;-74
2023/04/18 11:27:07;;;;;;;13.48;6.85;;;16.50;95.90;;;;;;5074638;28;20036;-75
2023/04/18 11:29:32;;;;;;;15.65;8.10;;;16.30;96.50;;;;;;5073765;28;20037;-74
2023/04/18 11:31:58;;;;;;;15.40;7.15;;;16.30;96.50;;;;;;5066166;28;20020;-75
2023/04/18 11:34:29;;;;;;;15.35;7.82;;;16.30;96.70;;;;;;5074512;28;20107;-71
2023/04/18 11:36:55;;;;;;;14.40;7.43;;;16.30;96.60;;;;;;5074622;28;20028;-72
2023/04/18 11:39:21;;;;;;;14.57;7.43;;;16.10;96.80;;;;;;5074412;28;20249;-74
2023/04/18 11:41:49;;;;;;;15.88;7.78;;;15.90;96.80;;;;;;5074553;28;20091;-76
2023/04/18 11:44:25;;;;;;;13.43;6.95;;;15.60;97.20;;;;;;5074422;28;20089;-77
2023/04/18 11:46:51;;;;;;;17.05;8.25;;;15.50;97.20;;;;;;5074566;28;20032;-73
2023/04/18 11:49:25;;;;;;;16.00;8.10;;;15.40;97.60;;;;;;5074084;28;20082;-72
2023/04/18 11:51:52;;;;;;;15.43;8.02;;;15.20;97.80;;;;;;5072739;28;20066;-75
2023/04/18 11:54:43;;;;;;;16.90;7.43;;;15.10;98.10;;;;;;5074337;28;20518;-75
2023/04/18 11:57:38;;;;;;;15.10;7.15;;;15.40;98.00;;;;;;5072259;28;20107;-74
2023/04/18 12:00:09;;;;;;;14.55;7.75;;;15.70;97.30;;;;;;5054856;28;20040;-73
2023/04/18 12:02:42;;;;;;;16.00;8.15;;;15.80;97.40;;;;;;5073565;28;20025;-73
2023/04/18 12:05:10;;;;;;;14.57;7.68;;;15.80;97.50;;;;;;5073392;28;20090;-74
2023/04/18 12:07:40;;;;;;;16.55;7.55;;;16.00;97.60;;;;;;5074037;28;20092;-73
2023/04/18 12:10:28;;;;;;;15.10;7.47;;;16.20;97.50;;;;;;5072164;28;20017;-75
2023/04/18 12:12:56;;;;;;;15.38;8.10;;;16.40;97.30;;;;;;5066380;28;20035;-75
2023/04/18 12:15:25;;;;;;;16.42;7.97;;;16.80;96.50;;;;;;5073858;28;20024;-74
2023/04/18 12:18:01;;;;;;;15.98;8.55;;;16.70;96.60;;;;;;5057721;28;20025;-75
2023/04/18 12:20:38;;;;;;;14.32;7.85;;;16.60;96.80;;;;;;5073661;28;20357;-73
2023/04/18 12:23:05;;;;;;;15.07;7.82;;;16.40;96.80;;;;;;5073159;28;20043;-75
2023/04/18 12:25:31;;;;;;;16.58;8.35;;;16.30;96.70;;;;;;5073708;28;20048;-73
2023/04/18 12:28:13;;;;;;;16.48;9.38;;;16.20;96.80;;;;;;5073388;28;20044;-75
2023/04/18 12:30:39;;;;;;;16.30;8.65;;;16.20;96.80;;;;;;5072890;28;20056;-72
2023/04/18 12:33:05;;;;;;;14.90;8.32;;;16.10;96.80;;;;;;5072038;28;20439;-73
2023/04/18 12:35:31;;;;;;;16.73;9.40;;;16.10;97.00;;;;;;5073284;28;20168;-73
2023/04/18 12:37:59;;;;;;;18.15;9.05;;;16.20;97.00;;;;;;5072566;28;20028;-76
2023/04/18 12:40:25;;;;;;;16.90;9.25;;;16.60;97.10;;;;;;5071371;28;20021;-74
2023/04/18 12:42:53;;;;;;;16.52;8.60;;;17.20;96.20;;;;;;5065673;28;20043;-75